Time;durP1;ratioP1;P1;durP2;ratioP2;P2;SDS_P1;SDS_P2;PMS_P1;PMS_P2;Temp;Humidity;BMP_temperature;BMP_pressure;BME280_temperature;BME280_humidity;BME280_pressure;Samples;Min_cycle;Max_cycle;Signal;HPM_P1;HPM_P2
2022/01/06 00:00:58;;;;;;;5.70;1.30;;;4.30;99.90;;;;;;5074493;28;20165;-69
2022/01/06 00:03:23;;;;;;;2.58;1.27;;;4.30;99.90;;;;;;5064281;28;20235;-69
2022/01/06 00:05:49;;;;;;;2.07;1.80;;;4.30;99.90;;;;;;5054877;28;20161;-68
2022/01/06 00:08:15;;;;;;;1.93;1.30;;;4.30;99.90;;;;;;5054871;28;20424;-68
2022/01/06 00:10:40;;;;;;;1.20;1.20;;;4.20;99.90;;;;;;5055223;28;20211;-67
2022/01/06 00:13:13;;;;;;;2.57;2.37;;;4.20;99.90;;;;;;5054116;28;20295;-67
2022/01/06 00:23:38;;;;;;;4.05;1.17;;;4.30;99.90;;;;;;5012508;28;20166;-68
2022/01/06 00:26:06;;;;;;;2.42;1.77;;;4.30;99.90;;;;;;5042719;28;20637;-68
2022/01/06 00:28:32;;;;;;;1.23;1.15;;;4.30;99.90;;;;;;5054351;28;20169;-67
2022/01/06 00:30:57;;;;;;;2.00;1.25;;;4.30;99.90;;;;;;5054194;28;20189;-68
2022/01/06 00:33:24;;;;;;;1.30;1.17;;;4.30;99.90;;;;;;5053902;28;20663;-69
2022/01/06 00:35:50;;;;;;;3.60;2.10;;;4.20;99.90;;;;;;5054286;28;20165;-69
2022/01/06 00:38:16;;;;;;;2.50;1.73;;;4.20;99.90;;;;;;5053916;28;20644;-69
2022/01/06 00:40:42;;;;;;;7.40;1.35;;;4.30;99.90;;;;;;5054028;28;20200;-69
2022/01/06 00:43:11;;;;;;;1.97;1.87;;;4.20;99.90;;;;;;5053722;28;20201;-68
2022/01/06 00:45:36;;;;;;;1.45;1.35;;;4.30;99.90;;;;;;5054049;28;20170;-68
2022/01/06 00:48:04;;;;;;;5.40;2.23;;;4.30;99.90;;;;;;5053811;28;20189;-68
2022/01/06 00:50:30;;;;;;;1.35;1.25;;;4.30;99.90;;;;;;5053827;28;20244;-68
2022/01/06 00:52:57;;;;;;;1.40;1.30;;;4.30;99.90;;;;;;5053416;28;20288;-70
2022/01/06 00:55:22;;;;;;;4.43;2.97;;;4.30;99.90;;;;;;5054025;28;20164;-70
2022/01/06 00:57:48;;;;;;;1.17;1.00;;;4.30;99.90;;;;;;5053751;28;20189;-68
2022/01/06 01:00:14;;;;;;;1.47;1.33;;;4.30;99.90;;;;;;5053830;28;20166;-69
2022/01/06 01:02:40;;;;;;;8.18;3.30;;;4.30;99.90;;;;;;5057463;28;20508;-68
2022/01/06 01:05:06;;;;;;;5.50;1.50;;;4.30;99.90;;;;;;5073799;28;20184;-70
2022/01/06 01:07:31;;;;;;;8.37;1.90;;;4.30;99.90;;;;;;5073959;28;20208;-67
2022/01/06 01:09:57;;;;;;;4.40;1.57;;;4.30;99.90;;;;;;5073664;28;20407;-69
2022/01/06 01:12:25;;;;;;;2.77;2.50;;;4.40;99.90;;;;;;5072637;28;20224;-69
2022/01/06 01:15:04;;;;;;;1.27;1.20;;;4.40;99.90;;;;;;5073653;28;20165;-70
2022/01/06 01:17:30;;;;;;;1.00;1.00;;;4.40;99.90;;;;;;5073600;28;20188;-68
2022/01/06 01:19:56;;;;;;;2.40;2.27;;;4.40;99.90;;;;;;5073536;28;20584;-68
2022/01/06 01:22:22;;;;;;;1.50;1.40;;;4.40;99.90;;;;;;5073124;28;20188;-69
2022/01/06 01:24:47;;;;;;;6.15;1.70;;;4.40;99.90;;;;;;5073378;28;20407;-69
2022/01/06 01:27:15;;;;;;;1.10;1.10;;;4.40;99.90;;;;;;5073328;28;20192;-68
2022/01/06 01:29:56;;;;;;;2.85;1.73;;;4.40;99.90;;;;;;5073659;28;20172;-69
2022/01/06 01:32:28;;;;;;;3.95;1.40;;;4.40;99.90;;;;;;5073067;28;20665;-68
2022/01/06 01:34:59;;;;;;;1.90;1.20;;;4.40;99.90;;;;;;5073558;28;20184;-69
2022/01/06 01:37:25;;;;;;;1.17;1.08;;;4.40;99.90;;;;;;5073419;28;20192;-69
2022/01/06 01:39:51;;;;;;;4.97;1.97;;;4.40;99.90;;;;;;5072288;28;20180;-68
2022/01/06 01:42:16;;;;;;;7.63;1.70;;;4.40;99.90;;;;;;5072934;28;20410;-70
2022/01/06 01:44:44;;;;;;;4.80;2.93;;;4.30;99.90;;;;;;5073233;28;20229;-68
2022/01/06 01:47:14;;;;;;;2.40;2.10;;;4.30;99.90;;;;;;5073087;28;20188;-69
2022/01/06 01:49:56;;;;;;;3.15;1.73;;;4.30;99.90;;;;;;5073352;28;20527;-68
2022/01/06 01:52:22;;;;;;;7.97;1.35;;;4.30;99.90;;;;;;5072591;28;20194;-69
2022/01/06 01:54:48;;;;;;;5.03;1.53;;;4.30;99.90;;;;;;5073319;28;20172;-69
2022/01/06 01:57:13;;;;;;;5.20;2.35;;;4.30;99.90;;;;;;5073035;28;20192;-69
2022/01/06 01:59:39;;;;;;;1.70;1.60;;;4.30;99.90;;;;;;5073101;28;20182;-68
2022/01/06 02:02:05;;;;;;;2.60;2.00;;;4.30;99.90;;;;;;5072827;28;20173;-68
2022/01/06 02:04:31;;;;;;;7.30;1.10;;;4.30;99.90;;;;;;5072915;28;20184;-69
2022/01/06 02:06:56;;;;;;;2.53;2.17;;;4.30;99.90;;;;;;5071685;28;20192;-69
2022/01/06 02:09:22;;;;;;;2.50;2.30;;;4.30;99.90;;;;;;5073220;28;20161;-67
2022/01/06 02:11:48;;;;;;;7.17;2.03;;;4.30;99.90;;;;;;5072677;28;20201;-67
2022/01/06 02:14:14;;;;;;;1.85;1.75;;;4.30;99.90;;;;;;5072996;28;20161;-69
2022/01/06 02:16:39;;;;;;;2.03;1.93;;;4.30;99.90;;;;;;5072867;28;20181;-68
2022/01/06 02:19:05;;;;;;;4.40;1.30;;;4.30;99.90;;;;;;5072992;28;20615;-67
2022/01/06 02:21:31;;;;;;;2.60;2.17;;;4.30;99.90;;;;;;5072601;28;20191;-69
2022/01/06 02:23:56;;;;;;;2.10;1.40;;;4.30;99.90;;;;;;5075610;28;20176;-69
2022/01/06 02:26:22;;;;;;;1.40;1.30;;;4.30;99.90;;;;;;5076716;28;20185;-68
2022/01/06 02:28:48;;;;;;;2.90;1.90;;;4.30;99.90;;;;;;5076635;28;20169;-69
2022/01/06 02:31:13;;;;;;;1.70;1.60;;;4.30;99.90;;;;;;5076199;28;20251;-68
2022/01/06 02:33:39;;;;;;;2.07;1.97;;;4.30;99.90;;;;;;5076794;28;20162;-68
2022/01/06 02:36:05;;;;;;;2.00;1.90;;;4.30;99.90;;;;;;5076360;28;20188;-68
2022/01/06 02:38:31;;;;;;;1.93;1.80;;;4.30;99.90;;;;;;5076547;28;20565;-71
2022/01/06 02:40:57;;;;;;;2.00;1.73;;;4.30;99.90;;;;;;5076514;28;20401;-69
2022/01/06 02:43:24;;;;;;;2.33;1.77;;;4.30;99.90;;;;;;5075915;28;20435;-68
2022/01/06 02:45:50;;;;;;;5.70;1.52;;;4.30;99.90;;;;;;5076264;28;20226;-68
2022/01/06 02:48:16;;;;;;;1.63;1.52;;;4.30;99.90;;;;;;5076255;28;20196;-67
2022/01/06 02:50:45;;;;;;;5.00;2.20;;;4.30;99.90;;;;;;5076222;28;20578;-67
2022/01/06 02:53:12;;;;;;;3.10;1.50;;;4.20;99.90;;;;;;5075840;28;20778;-67
2022/01/06 02:55:50;;;;;;;1.80;1.70;;;4.30;99.90;;;;;;5076310;28;20177;-68
2022/01/06 02:58:17;;;;;;;9.45;2.08;;;4.30;99.90;;;;;;5076063;28;20215;-68
2022/01/06 03:00:44;;;;;;;4.60;1.58;;;4.30;99.90;;;;;;5076035;28;20184;-68
2022/01/06 03:03:10;;;;;;;3.70;1.23;;;4.30;99.90;;;;;;5067267;28;20170;-69
2022/01/06 03:05:35;;;;;;;0.93;0.93;;;4.30;99.90;;;;;;5056227;28;20505;-69
2022/01/06 03:08:01;;;;;;;2.50;1.80;;;4.30;99.90;;;;;;5055654;28;20245;-69
2022/01/06 03:10:27;;;;;;;2.57;1.30;;;4.30;99.90;;;;;;5054578;28;20170;-68
2022/01/06 03:12:53;;;;;;;2.75;1.45;;;4.30;99.90;;;;;;5055410;28;20197;-69
2022/01/06 03:15:24;;;;;;;2.37;2.20;;;4.30;99.90;;;;;;5055856;28;20723;-69
2022/01/06 03:17:52;;;;;;;1.27;1.17;;;4.30;99.90;;;;;;5055752;28;20424;-67
2022/01/06 03:20:21;;;;;;;5.22;2.33;;;4.30;99.90;;;;;;5056407;28;20169;-69
2022/01/06 03:22:47;;;;;;;2.13;1.75;;;4.30;99.90;;;;;;5055202;28;20178;-69
2022/01/06 03:25:13;;;;;;;2.33;1.80;;;4.30;99.90;;;;;;5055667;28;20524;-67
2022/01/06 03:27:40;;;;;;;1.33;1.20;;;4.40;99.90;;;;;;5055484;28;20193;-68
2022/01/06 03:30:09;;;;;;;1.55;1.45;;;4.40;99.90;;;;;;5055541;28;20256;-68
2022/01/06 03:32:35;;;;;;;1.38;1.25;;;4.40;99.90;;;;;;5055171;28;20201;-68
2022/01/06 03:35:01;;;;;;;1.33;1.23;;;4.30;99.90;;;;;;5054510;28;20178;-69
2022/01/06 03:37:27;;;;;;;1.60;1.50;;;4.40;99.90;;;;;;5055373;28;20510;-67
2022/01/06 03:39:53;;;;;;;1.37;1.27;;;4.40;99.90;;;;;;5055255;28;20235;-69
2022/01/06 03:42:19;;;;;;;2.40;2.30;;;4.40;99.90;;;;;;5055261;28;20415;-69
2022/01/06 03:44:44;;;;;;;2.80;2.40;;;4.40;99.90;;;;;;5055226;28;20173;-67
2022/01/06 03:47:10;;;;;;;2.17;1.30;;;4.50;99.90;;;;;;5055253;28;20501;-68
2022/01/06 03:49:35;;;;;;;1.43;1.37;;;4.50;99.90;;;;;;5055177;28;20224;-69
2022/01/06 03:52:01;;;;;;;2.17;1.97;;;4.40;99.90;;;;;;5054678;28;20196;-68
2022/01/06 03:54:27;;;;;;;2.13;1.80;;;4.40;99.90;;;;;;5054950;28;20635;-67
2022/01/06 03:56:52;;;;;;;2.20;1.80;;;4.40;99.90;;;;;;5054881;28;20220;-68
2022/01/06 03:59:19;;;;;;;3.40;1.53;;;4.40;99.90;;;;;;5055027;28;20165;-69
2022/01/06 04:01:45;;;;;;;3.20;2.13;;;4.40;99.90;;;;;;5054769;28;20177;-67
2022/01/06 04:04:12;;;;;;;1.33;1.23;;;4.50;99.90;;;;;;5071369;28;20184;-69
2022/01/06 04:06:39;;;;;;;1.75;1.65;;;4.40;99.90;;;;;;5075066;28;20195;-69
2022/01/06 04:09:05;;;;;;;2.97;1.98;;;4.40;99.90;;;;;;5074973;28;20275;-68
2022/01/06 04:11:31;;;;;;;2.40;1.70;;;4.30;99.90;;;;;;5074427;28;20280;-69
2022/01/06 04:13:57;;;;;;;1.50;1.37;;;4.30;99.90;;;;;;5074889;28;20399;-69
2022/01/06 04:16:25;;;;;;;2.85;2.47;;;4.40;99.90;;;;;;5074801;28;20185;-69
2022/01/06 04:18:50;;;;;;;2.33;2.00;;;4.30;99.90;;;;;;5076891;28;20173;-68
2022/01/06 04:21:16;;;;;;;3.97;1.40;;;4.30;99.90;;;;;;5079060;28;20496;-68
2022/01/06 04:23:42;;;;;;;1.50;1.40;;;4.30;99.90;;;;;;5079638;28;20197;-67
2022/01/06 04:26:07;;;;;;;2.40;1.83;;;4.30;99.90;;;;;;5080787;28;20165;-69
2022/01/06 04:28:33;;;;;;;2.20;1.40;;;4.40;99.90;;;;;;5081422;28;20407;-67
2022/01/06 04:30:59;;;;;;;1.83;1.73;;;4.30;99.90;;;;;;5085215;28;20220;-69
2022/01/06 04:33:25;;;;;;;1.63;1.20;;;4.30;99.90;;;;;;5084131;28;20200;-67
2022/01/06 04:35:50;;;;;;;2.13;1.60;;;4.30;99.90;;;;;;5082313;28;20399;-69
2022/01/06 04:38:16;;;;;;;2.40;2.00;;;4.30;99.90;;;;;;5082350;28;20189;-67
2022/01/06 04:40:42;;;;;;;3.10;1.20;;;4.30;99.90;;;;;;5082508;28;20165;-66
2022/01/06 04:43:07;;;;;;;2.83;1.33;;;4.30;99.90;;;;;;5074126;28;20173;-68
2022/01/06 04:45:34;;;;;;;1.60;1.50;;;4.30;99.90;;;;;;5073916;28;20681;-67
2022/01/06 04:47:59;;;;;;;1.30;1.23;;;4.30;99.90;;;;;;5074052;28;20189;-67
2022/01/06 04:50:25;;;;;;;1.77;1.27;;;4.30;99.90;;;;;;5074103;28;20681;-68
2022/01/06 04:52:51;;;;;;;1.70;1.60;;;4.20;99.90;;;;;;5073500;28;20246;-68
2022/01/06 04:55:16;;;;;;;2.70;1.63;;;4.20;99.90;;;;;;5073905;28;20168;-68
2022/01/06 04:57:42;;;;;;;3.17;2.17;;;4.20;99.90;;;;;;5073956;28;20532;-68
2022/01/06 05:00:08;;;;;;;3.17;1.90;;;4.20;99.90;;;;;;5074028;28;20245;-68
2022/01/06 05:02:34;;;;;;;1.67;1.58;;;4.20;99.90;;;;;;5070700;28;20178;-67
2022/01/06 05:04:59;;;;;;;1.23;1.23;;;4.20;99.90;;;;;;5053880;28;20197;-69
2022/01/06 05:07:25;;;;;;;2.07;1.97;;;4.20;99.90;;;;;;5053753;28;20189;-67
2022/01/06 05:09:51;;;;;;;5.77;1.63;;;4.20;99.90;;;;;;5053711;28;20314;-68
2022/01/06 05:12:16;;;;;;;1.87;1.40;;;4.20;99.90;;;;;;5053097;28;20193;-67
2022/01/06 05:14:42;;;;;;;2.10;1.83;;;4.20;99.90;;;;;;5053443;28;20196;-68
2022/01/06 05:17:08;;;;;;;4.23;1.80;;;4.20;99.90;;;;;;5053621;28;20185;-69
2022/01/06 05:19:34;;;;;;;2.50;2.30;;;4.10;99.90;;;;;;5053354;28;20595;-68
2022/01/06 05:22:01;;;;;;;2.30;2.10;;;4.10;99.90;;;;;;5053244;28;20406;-68
2022/01/06 05:24:26;;;;;;;2.00;1.77;;;4.10;99.90;;;;;;5053675;28;20165;-67
2022/01/06 05:26:56;;;;;;;2.07;1.43;;;4.00;99.90;;;;;;5053382;28;20193;-68
2022/01/06 05:29:23;;;;;;;4.93;2.42;;;4.00;99.90;;;;;;5053359;28;20578;-68
2022/01/06 05:31:50;;;;;;;1.38;1.38;;;3.90;99.90;;;;;;5053082;28;20547;-68
2022/01/06 05:34:16;;;;;;;2.15;2.00;;;3.90;99.90;;;;;;5053441;28;20176;-68
2022/01/06 05:36:41;;;;;;;2.33;2.23;;;3.90;99.90;;;;;;5053184;28;20656;-67
2022/01/06 05:39:07;;;;;;;1.47;1.40;;;3.80;99.90;;;;;;5053516;28;20400;-68
2022/01/06 05:41:33;;;;;;;2.83;1.67;;;3.80;99.90;;;;;;5053013;28;20192;-68
2022/01/06 05:43:59;;;;;;;1.93;1.83;;;3.80;99.90;;;;;;5053377;28;20173;-69
2022/01/06 05:46:25;;;;;;;1.63;1.63;;;3.80;99.90;;;;;;5053278;28;20518;-68
2022/01/06 05:48:50;;;;;;;1.20;1.10;;;3.80;99.90;;;;;;5053269;28;20271;-69
2022/01/06 05:51:16;;;;;;;1.63;1.63;;;3.80;99.90;;;;;;5052655;28;20631;-68
2022/01/06 05:53:42;;;;;;;1.53;1.43;;;3.80;99.90;;;;;;5053326;28;20165;-68
2022/01/06 05:56:07;;;;;;;2.50;1.40;;;3.90;99.90;;;;;;5052147;28;20644;-68
2022/01/06 05:58:33;;;;;;;2.33;1.87;;;3.90;99.90;;;;;;5055214;28;20400;-68
2022/01/06 06:00:59;;;;;;;5.80;2.53;;;4.00;99.90;;;;;;5057388;28;20623;-68
2022/01/06 06:03:28;;;;;;;1.87;1.77;;;4.00;99.90;;;;;;5067424;28;20422;-68
2022/01/06 06:05:54;;;;;;;1.98;1.38;;;4.00;99.90;;;;;;5077600;28;20219;-67
2022/01/06 06:08:20;;;;;;;1.52;1.42;;;4.10;99.90;;;;;;5077064;28;20220;-67
2022/01/06 06:10:46;;;;;;;2.20;2.00;;;4.10;99.90;;;;;;5077140;28;20192;-68
2022/01/06 06:13:12;;;;;;;1.70;1.60;;;4.10;99.90;;;;;;5075706;28;20450;-69
2022/01/06 06:15:37;;;;;;;4.10;2.20;;;4.10;99.90;;;;;;5077152;28;20179;-68
2022/01/06 06:18:05;;;;;;;1.60;1.50;;;4.10;99.90;;;;;;5076990;28;20192;-68
2022/01/06 06:20:31;;;;;;;2.97;1.60;;;4.20;99.90;;;;;;5077354;28;20218;-67
2022/01/06 06:22:58;;;;;;;2.33;2.13;;;4.20;99.90;;;;;;5076455;28;20269;-68
2022/01/06 06:25:24;;;;;;;1.73;1.63;;;4.20;99.90;;;;;;5077088;28;20164;-68
2022/01/06 06:27:49;;;;;;;0.90;0.90;;;4.10;99.90;;;;;;5076985;28;20661;-68
2022/01/06 06:30:15;;;;;;;2.70;2.33;;;4.20;99.90;;;;;;5076767;28;20180;-68
2022/01/06 06:32:41;;;;;;;4.33;1.60;;;4.20;99.90;;;;;;5076300;28;20640;-68
2022/01/06 06:35:08;;;;;;;1.33;1.23;;;4.20;99.90;;;;;;5076738;28;20769;-69
2022/01/06 06:37:33;;;;;;;2.10;1.80;;;4.20;99.90;;;;;;5076472;28;20185;-68
2022/01/06 06:39:59;;;;;;;1.07;1.00;;;4.20;99.90;;;;;;5076551;28;20214;-67
2022/01/06 06:42:28;;;;;;;1.73;1.63;;;4.20;99.90;;;;;;5076154;28;20173;-68
2022/01/06 06:44:54;;;;;;;1.98;1.52;;;4.20;99.90;;;;;;5072710;28;20192;-69
2022/01/06 06:47:20;;;;;;;2.10;1.70;;;4.20;99.90;;;;;;5076226;28;20651;-68
2022/01/06 06:49:45;;;;;;;1.80;1.70;;;4.20;99.90;;;;;;5076094;28;20411;-67
2022/01/06 06:52:11;;;;;;;4.63;1.80;;;4.20;99.90;;;;;;5075739;28;20439;-67
2022/01/06 06:54:37;;;;;;;4.57;2.10;;;4.30;99.90;;;;;;5076053;28;20530;-68
2022/01/06 06:57:03;;;;;;;1.67;1.57;;;4.30;99.90;;;;;;5076383;28;20238;-69
2022/01/06 06:59:28;;;;;;;2.10;1.70;;;4.20;99.90;;;;;;5076014;28;20193;-66
2022/01/06 07:01:54;;;;;;;1.70;1.60;;;4.20;99.90;;;;;;5075916;28;20643;-67
2022/01/06 07:04:20;;;;;;;2.10;1.67;;;4.20;99.90;;;;;;5057842;28;20190;-69
2022/01/06 07:06:45;;;;;;;1.67;1.50;;;4.10;99.90;;;;;;5055971;28;20272;-69
2022/01/06 07:09:11;;;;;;;6.93;2.63;;;4.10;99.90;;;;;;5055942;28;20204;-69
2022/01/06 07:11:37;;;;;;;1.08;1.08;;;4.00;99.90;;;;;;5055284;28;20343;-69
2022/01/06 07:14:03;;;;;;;1.77;1.63;;;3.90;99.90;;;;;;5055473;28;20252;-67
2022/01/06 07:16:28;;;;;;;2.37;1.80;;;3.90;99.90;;;;;;5055760;28;20197;-67
2022/01/06 07:18:54;;;;;;;3.37;1.33;;;3.80;99.90;;;;;;5055681;28;20640;-67
2022/01/06 07:21:20;;;;;;;2.63;1.70;;;3.70;99.90;;;;;;5055251;28;20180;-69
2022/01/06 07:23:46;;;;;;;2.43;2.20;;;3.70;99.90;;;;;;5055783;28;20407;-67
2022/01/06 07:26:12;;;;;;;3.22;1.90;;;3.60;99.90;;;;;;5055437;28;20520;-68
2022/01/06 07:28:37;;;;;;;1.73;1.60;;;3.60;99.90;;;;;;5055669;28;20174;-67
2022/01/06 07:31:04;;;;;;;2.90;1.97;;;3.50;99.90;;;;;;5055127;28;20169;-69
2022/01/06 07:33:30;;;;;;;1.70;1.60;;;3.40;99.90;;;;;;5055495;28;20243;-68
2022/01/06 07:35:56;;;;;;;1.58;1.40;;;3.40;99.90;;;;;;5055507;28;20516;-69
2022/01/06 07:38:23;;;;;;;1.70;1.60;;;3.30;99.90;;;;;;5055269;28;20193;-67
2022/01/06 07:40:49;;;;;;;2.50;1.48;;;3.30;99.90;;;;;;5055482;28;20169;-69
2022/01/06 07:43:14;;;;;;;3.10;1.63;;;3.20;99.90;;;;;;5054843;28;20260;-67
2022/01/06 07:45:40;;;;;;;2.73;1.27;;;3.20;99.90;;;;;;5055218;28;20205;-67
2022/01/06 07:48:15;;;;;;;2.83;1.00;;;3.20;99.90;;;;;;5055190;28;20217;-67
2022/01/06 07:50:42;;;;;;;1.30;1.30;;;3.20;99.90;;;;;;5055168;28;20201;-68
2022/01/06 07:53:07;;;;;;;2.25;1.30;;;3.20;99.90;;;;;;5054749;28;20682;-68
2022/01/06 07:55:33;;;;;;;2.10;2.00;;;3.10;99.90;;;;;;5055022;28;20195;-67
2022/01/06 07:57:59;;;;;;;7.70;1.70;;;3.10;99.90;;;;;;5054746;28;20192;-67
2022/01/06 08:00:24;;;;;;;2.43;2.23;;;3.20;99.90;;;;;;5054960;28;20180;-69
2022/01/06 08:02:51;;;;;;;1.60;1.10;;;3.30;99.90;;;;;;5058282;28;20586;-68
2022/01/06 08:05:19;;;;;;;2.70;2.45;;;3.30;99.90;;;;;;5075043;28;20515;-68
2022/01/06 08:07:45;;;;;;;5.85;2.60;;;3.40;99.90;;;;;;5074575;28;20213;-68
2022/01/06 08:10:11;;;;;;;2.03;1.93;;;3.60;99.90;;;;;;5074519;28;20254;-73
2022/01/06 08:12:37;;;;;;;2.22;1.98;;;3.70;99.90;;;;;;5073533;28;20208;-69
2022/01/06 08:15:03;;;;;;;2.30;1.83;;;3.90;99.90;;;;;;5073119;28;20171;-68
2022/01/06 08:17:29;;;;;;;2.28;2.08;;;4.10;99.90;;;;;;5074563;28;20184;-68
2022/01/06 08:19:55;;;;;;;5.80;2.30;;;4.30;99.90;;;;;;5074592;28;20218;-68
2022/01/06 08:22:21;;;;;;;1.50;1.40;;;4.50;99.90;;;;;;5073696;28;20172;-69
2022/01/06 08:24:47;;;;;;;3.05;2.63;;;4.70;99.90;;;;;;5074517;28;20169;-67
2022/01/06 08:27:13;;;;;;;2.10;1.90;;;5.00;99.90;;;;;;5072974;28;20193;-67
2022/01/06 08:29:39;;;;;;;2.50;2.30;;;5.30;99.90;;;;;;5074886;28;20402;-67
2022/01/06 08:32:06;;;;;;;6.22;2.03;;;5.70;99.90;;;;;;5073730;28;20231;-67
2022/01/06 08:34:31;;;;;;;3.70;2.35;;;6.20;99.90;;;;;;5074102;28;20180;-67
2022/01/06 08:36:57;;;;;;;2.20;2.10;;;6.80;99.90;;;;;;5074094;28;20226;-66
2022/01/06 08:39:23;;;;;;;2.30;1.53;;;7.50;99.90;;;;;;5074198;28;20157;-67
2022/01/06 08:41:50;;;;;;;2.88;2.03;;;8.10;99.90;;;;;;5072349;28;20177;-67
2022/01/06 08:44:16;;;;;;;1.55;1.50;;;8.20;99.90;;;;;;5073911;28;20643;-67
2022/01/06 08:46:42;;;;;;;7.72;2.63;;;8.00;99.90;;;;;;5073513;28;20641;-69
2022/01/06 08:49:11;;;;;;;1.85;1.75;;;7.70;99.90;;;;;;5073828;28;20242;-66
2022/01/06 08:51:38;;;;;;;2.90;2.05;;;7.40;99.90;;;;;;5072336;28;20200;-67
2022/01/06 08:54:04;;;;;;;1.70;1.45;;;7.10;99.90;;;;;;5073235;28;20177;-67
2022/01/06 08:56:30;;;;;;;4.78;1.75;;;6.70;99.90;;;;;;5073597;28;20614;-66
2022/01/06 08:58:55;;;;;;;3.80;1.97;;;6.60;99.90;;;;;;5073766;28;20165;-65
2022/01/06 09:01:21;;;;;;;3.70;3.40;;;6.40;99.90;;;;;;5073323;28;20250;-65
2022/01/06 09:03:47;;;;;;;6.20;2.23;;;6.40;99.90;;;;;;5060005;28;20223;-65
2022/01/06 09:06:13;;;;;;;2.03;1.83;;;6.40;99.90;;;;;;5051789;28;20162;-66
2022/01/06 09:08:41;;;;;;;4.30;2.67;;;6.30;99.90;;;;;;5052688;28;20521;-65
2022/01/06 09:11:07;;;;;;;4.07;1.60;;;6.20;99.90;;;;;;5051809;28;20499;-66
2022/01/06 09:13:33;;;;;;;5.13;2.00;;;6.30;99.90;;;;;;5053172;28;20228;-66
2022/01/06 09:15:58;;;;;;;2.50;2.30;;;6.30;99.90;;;;;;5053315;28;20247;-67
2022/01/06 09:18:24;;;;;;;5.30;2.53;;;6.30;99.90;;;;;;5053186;28;20188;-71
2022/01/06 09:20:50;;;;;;;3.13;2.83;;;6.20;99.90;;;;;;5053347;28;20624;-70
2022/01/06 09:23:16;;;;;;;2.77;2.50;;;6.10;99.90;;;;;;5052732;28;20189;-75
2022/01/06 09:25:42;;;;;;;2.07;1.97;;;6.10;99.90;;;;;;5053382;28;20502;-74
2022/01/06 09:28:10;;;;;;;2.25;1.83;;;6.00;99.90;;;;;;5053466;28;20436;-75
2022/01/06 09:30:36;;;;;;;2.80;1.70;;;5.90;99.90;;;;;;5053419;28;20192;-75
2022/01/06 09:33:03;;;;;;;1.77;1.67;;;5.70;99.90;;;;;;5052116;28;20279;-73
2022/01/06 09:35:29;;;;;;;2.10;2.00;;;5.60;99.90;;;;;;5052938;28;20165;-69
2022/01/06 09:37:55;;;;;;;1.70;1.60;;;5.50;99.90;;;;;;5053081;28;20544;-64
2022/01/06 09:40:20;;;;;;;3.60;3.03;;;5.50;99.90;;;;;;5053442;28;20610;-67
2022/01/06 09:42:46;;;;;;;2.53;2.33;;;5.40;99.90;;;;;;5053110;28;20175;-67
2022/01/06 09:45:12;;;;;;;5.23;3.10;;;5.50;99.90;;;;;;5052590;28;20443;-67
2022/01/06 09:47:41;;;;;;;8.35;3.83;;;5.50;99.90;;;;;;5053102;28;20539;-71
2022/01/06 09:50:10;;;;;;;2.63;2.42;;;5.50;99.90;;;;;;5052832;28;20167;-67
2022/01/06 09:52:36;;;;;;;6.88;3.50;;;5.50;99.90;;;;;;5052642;28;20206;-65
2022/01/06 09:55:03;;;;;;;3.03;2.80;;;5.60;99.90;;;;;;5052794;28;20176;-64
2022/01/06 09:57:30;;;;;;;5.35;2.28;;;5.80;99.90;;;;;;5051461;28;20959;-66
2022/01/06 09:59:55;;;;;;;10.02;2.38;;;5.90;99.90;;;;;;5052915;28;20193;-65
2022/01/06 10:02:21;;;;;;;4.00;2.63;;;5.90;99.90;;;;;;5052387;28;20208;-64
2022/01/06 10:04:59;;;;;;;6.33;2.83;;;6.00;99.90;;;;;;5052771;28;20195;-64
2022/01/06 10:07:25;;;;;;;5.63;2.33;;;6.00;99.90;;;;;;5052729;28;20255;-63
2022/01/06 10:09:50;;;;;;;3.47;3.20;;;6.10;99.90;;;;;;5052901;28;20176;-66
2022/01/06 10:12:16;;;;;;;3.00;2.40;;;6.10;99.90;;;;;;5067523;28;20192;-64
2022/01/06 10:14:46;;;;;;;2.27;1.53;;;6.10;99.90;;;;;;5072727;28;20172;-67
2022/01/06 10:17:27;;;;;;;1.50;1.40;;;6.00;99.90;;;;;;5072439;28;20448;-66
2022/01/06 10:19:54;;;;;;;1.85;1.75;;;6.00;99.90;;;;;;5072025;28;20231;-66
2022/01/06 10:22:21;;;;;;;3.80;1.98;;;6.00;99.90;;;;;;5071045;28;20540;-66
2022/01/06 10:24:50;;;;;;;5.55;2.53;;;6.00;99.90;;;;;;5072234;28;20262;-67
2022/01/06 10:27:19;;;;;;;1.85;1.75;;;5.90;99.90;;;;;;5072215;28;20190;-67
2022/01/06 10:29:49;;;;;;;3.08;2.45;;;6.00;99.90;;;;;;5072304;28;20192;-67
2022/01/06 10:32:17;;;;;;;3.13;2.53;;;6.10;99.90;;;;;;5072383;28;20200;-66
2022/01/06 10:34:46;;;;;;;1.90;1.73;;;6.70;99.90;;;;;;5072613;28;20631;-69
2022/01/06 10:37:38;;;;;;;2.90;2.55;;;7.20;99.90;;;;;;5071391;28;20200;-68
2022/01/06 10:40:06;;;;;;;8.23;2.72;;;7.30;99.90;;;;;;5072689;28;20169;-67
2022/01/06 10:42:34;;;;;;;2.05;1.85;;;7.40;99.90;;;;;;5072373;28;20172;-65
2022/01/06 10:45:09;;;;;;;1.50;1.40;;;7.60;99.90;;;;;;5075040;28;20264;-68
2022/01/06 10:47:47;;;;;;;2.20;2.03;;;7.70;99.90;;;;;;5076193;28;20550;-65
2022/01/06 10:50:23;;;;;;;2.72;2.53;;;7.60;99.90;;;;;;5076106;28;20258;-66
2022/01/06 10:53:00;;;;;;;1.08;1.08;;;7.50;99.90;;;;;;5075762;28;20532;-67
2022/01/06 10:55:28;;;;;;;1.52;1.42;;;7.40;99.90;;;;;;5076057;28;20225;-66
2022/01/06 10:57:59;;;;;;;3.42;1.65;;;7.30;99.90;;;;;;5075920;28;20204;-68
2022/01/06 11:00:30;;;;;;;1.55;1.45;;;7.20;99.90;;;;;;5076068;28;20622;-68
2022/01/06 11:03:16;;;;;;;2.15;1.15;;;7.10;99.90;;;;;;5075506;28;20648;-67
2022/01/06 11:05:53;;;;;;;2.25;1.50;;;7.00;99.90;;;;;;5075938;28;20250;-67
2022/01/06 11:08:24;;;;;;;1.63;1.52;;;7.00;99.90;;;;;;5076140;28;20180;-65
2022/01/06 11:11:13;;;;;;;1.08;1.08;;;7.10;99.90;;;;;;5075899;28;20211;-67
2022/01/06 11:13:38;;;;;;;1.35;1.13;;;7.10;99.90;;;;;;5075948;28;20204;-66
2022/01/06 11:16:04;;;;;;;1.55;1.15;;;7.10;99.90;;;;;;5075681;28;20638;-65
2022/01/06 11:18:31;;;;;;;1.30;1.20;;;7.20;99.90;;;;;;5075877;28;20544;-67
2022/01/06 11:21:15;;;;;;;2.50;1.00;;;7.10;99.90;;;;;;5075758;28;20172;-65
2022/01/06 11:23:41;;;;;;;1.58;1.10;;;7.00;99.90;;;;;;5075510;28;20176;-67
2022/01/06 11:26:07;;;;;;;3.80;1.40;;;6.90;99.90;;;;;;5075629;28;20157;-67
2022/01/06 11:28:35;;;;;;;2.97;1.43;;;6.70;99.90;;;;;;5075599;28;20183;-66
2022/01/06 11:31:18;;;;;;;1.13;1.13;;;6.50;99.90;;;;;;5075359;28;20747;-65
2022/01/06 11:33:46;;;;;;;0.90;0.90;;;6.40;99.90;;;;;;5075468;28;20183;-67
2022/01/06 11:36:29;;;;;;;1.58;1.20;;;6.20;99.90;;;;;;5075282;28;20272;-65
2022/01/06 11:38:56;;;;;;;8.02;1.60;;;6.00;99.90;;;;;;5074100;28;20286;-67
2022/01/06 11:41:30;;;;;;;0.88;0.88;;;6.00;99.90;;;;;;5075047;28;20635;-66
2022/01/06 11:43:58;;;;;;;4.88;1.50;;;5.90;99.90;;;;;;5075688;28;20171;-65
2022/01/06 11:46:24;;;;;;;2.25;1.98;;;5.80;99.90;;;;;;5075117;28;20276;-67
2022/01/06 11:48:57;;;;;;;1.98;1.77;;;5.80;99.90;;;;;;5076271;28;20178;-67
2022/01/06 11:51:29;;;;;;;1.13;0.90;;;5.80;99.90;;;;;;5074845;28;20248;-66
2022/01/06 11:53:56;;;;;;;7.80;2.30;;;5.80;99.90;;;;;;5075207;28;20175;-68
2022/01/06 11:56:23;;;;;;;2.78;1.42;;;5.90;99.90;;;;;;5074263;28;20192;-66
2022/01/06 11:59:03;;;;;;;1.48;1.38;;;6.10;99.90;;;;;;5075244;28;20680;-66
2022/01/06 12:01:48;;;;;;;2.67;1.42;;;6.30;99.90;;;;;;5074587;28;20557;-67
2022/01/06 12:04:16;;;;;;;2.70;0.93;;;6.60;99.90;;;;;;5056354;28;20203;-66
2022/01/06 12:06:42;;;;;;;3.03;1.02;;;6.90;99.90;;;;;;5054717;28;20199;-67
2022/01/06 12:09:22;;;;;;;1.20;1.10;;;7.10;99.90;;;;;;5054907;28;20168;-66
2022/01/06 12:12:09;;;;;;;3.78;1.67;;;7.30;99.90;;;;;;5054346;28;20199;-67
2022/01/06 12:14:35;;;;;;;3.55;3.10;;;7.50;99.90;;;;;;5054989;28;20180;-67
2022/01/06 12:17:09;;;;;;;1.83;1.40;;;7.60;99.90;;;;;;5054572;28;20243;-66
2022/01/06 12:19:35;;;;;;;3.28;1.80;;;7.80;99.90;;;;;;5054954;28;20177;-67
2022/01/06 12:22:04;;;;;;;1.48;1.48;;;7.90;99.90;;;;;;5054311;28;20616;-66
2022/01/06 12:24:30;;;;;;;2.80;1.25;;;8.00;99.90;;;;;;5054440;28;20197;-68
2022/01/06 12:26:56;;;;;;;1.70;0.93;;;8.10;99.90;;;;;;5054966;28;20197;-66
2022/01/06 12:29:26;;;;;;;1.70;1.60;;;8.20;99.90;;;;;;5054420;28;20247;-67
2022/01/06 12:32:01;;;;;;;5.20;3.95;;;8.30;99.90;;;;;;5054095;28;20202;-68
2022/01/06 12:34:27;;;;;;;3.13;1.83;;;8.40;99.90;;;;;;5054393;28;20192;-67
2022/01/06 12:36:53;;;;;;;1.20;1.10;;;8.40;99.90;;;;;;5054017;28;20197;-67
2022/01/06 12:39:21;;;;;;;2.10;1.50;;;8.40;99.90;;;;;;5054246;28;20176;-67
2022/01/06 12:41:49;;;;;;;1.25;1.15;;;8.30;99.90;;;;;;5053551;28;20177;-67
2022/01/06 12:44:22;;;;;;;1.42;1.33;;;8.30;99.90;;;;;;5054009;28;20200;-66
2022/01/06 12:46:48;;;;;;;2.20;1.60;;;8.20;99.90;;;;;;5054073;28;20204;-66
2022/01/06 12:49:14;;;;;;;1.70;1.15;;;8.10;99.90;;;;;;5053695;28;20220;-66
2022/01/06 12:51:46;;;;;;;6.53;1.23;;;8.10;99.90;;;;;;5053479;28;20266;-67
2022/01/06 12:54:15;;;;;;;4.90;1.48;;;8.10;99.90;;;;;;5054211;28;20846;-68
2022/01/06 12:56:49;;;;;;;2.13;0.90;;;8.10;99.90;;;;;;5053972;28;20194;-66
2022/01/06 12:59:23;;;;;;;1.85;0.80;;;8.20;99.90;;;;;;5053940;28;20157;-66
2022/01/06 13:01:54;;;;;;;1.58;0.95;;;8.30;99.90;;;;;;5053408;28;20177;-68
2022/01/06 13:04:26;;;;;;;1.00;1.00;;;8.40;99.90;;;;;;5071465;28;20203;-66
2022/01/06 13:06:55;;;;;;;1.08;0.60;;;8.50;99.90;;;;;;5073541;28;20192;-67